Time;durP1;ratioP1;P1;durP2;ratioP2;P2;SDS_P1;SDS_P2;PMS_P1;PMS_P2;Temp;Humidity;BMP_temperature;BMP_pressure;BME280_temperature;BME280_humidity;BME280_pressure;Samples;Min_cycle;Max_cycle;Signal;HPM_P1;HPM_P2
2022/07/20 00:00:45;;;;;;;;;;;24.40;82.60;;;;;;5035041;28;20007;-78
2022/07/20 00:03:11;;;;;;;;;;;24.50;82.50;;;;;;5036858;28;19915;-80
2022/07/20 00:05:38;;;;;;;;;;;24.50;81.30;;;;;;5035587;28;19913;-74
2022/07/20 00:08:04;;;;;;;;;;;24.70;80.60;;;;;;5036069;28;19910;-77
2022/07/20 00:13:14;;;;;;;;;;;25.00;79.80;;;;;;5038959;28;20287;-76
2022/07/20 00:15:39;;;;;;;;;;;25.00;80.00;;;;;;5037592;28;19925;-77
2022/07/20 00:18:05;;;;;;;;;;;25.10;79.50;;;;;;5034700;28;19953;-76
2022/07/20 00:20:31;;;;;;;;;;;25.10;78.70;;;;;;5034824;28;19917;-79
2022/07/20 00:22:58;;;;;;;;;;;25.20;78.40;;;;;;5035485;28;20288;-77
2022/07/20 00:25:23;;;;;;;;;;;25.30;78.00;;;;;;5049565;28;19953;-78
2022/07/20 00:27:49;;;;;;;;;;;25.30;78.40;;;;;;5034638;28;19963;-78
2022/07/20 00:30:15;;;;;;;;;;;25.30;78.50;;;;;;5035591;28;19917;-77
2022/07/20 00:32:42;;;;;;;;;;;25.30;77.50;;;;;;5035891;28;20270;-78
2022/07/20 00:35:09;;;;;;;;;;;25.30;77.30;;;;;;5040821;28;19912;-78
2022/07/20 00:37:34;;;;;;;;;;;25.30;76.90;;;;;;5035794;28;19917;-76
2022/07/20 00:40:00;;;;;;;;;;;25.40;76.80;;;;;;5035189;28;20364;-76
2022/07/20 00:42:26;;;;;;;;;;;25.40;77.00;;;;;;5034847;28;19909;-80
2022/07/20 00:44:51;;;;;;;;;;;25.40;77.20;;;;;;5034885;28;19924;-82
2022/07/20 00:47:17;;;;;;;;;;;25.30;77.20;;;;;;5033410;28;20008;-78
2022/07/20 00:49:42;;;;;;;;;;;25.30;77.30;;;;;;5032794;28;20016;-78
2022/07/20 00:52:08;;;;;;;;;;;25.30;77.40;;;;;;5041837;28;19916;-79
2022/07/20 00:54:34;;;;;;;;;;;25.30;77.50;;;;;;5039639;28;19979;-80
2022/07/20 00:57:00;;;;;;;;;;;25.30;78.20;;;;;;5034184;28;19917;-78
2022/07/20 00:59:25;;;;;;;;;;;25.20;77.50;;;;;;5033203;28;19937;-79
2022/07/20 01:01:51;;;;;;;;;;;25.20;78.20;;;;;;5046727;28;19944;-95
2022/07/20 01:04:17;;;;;;;;;;;25.20;79.10;;;;;;5034922;28;20266;-80
2022/07/20 01:06:43;;;;;;;;;;;24.70;83.70;;;;;;5034988;28;19920;-77
2022/07/20 01:09:08;;;;;;;;;;;24.90;79.80;;;;;;5045214;28;20019;-80
2022/07/20 01:11:35;;;;;;;;;;;25.00;80.40;;;;;;5035570;28;20312;-76
2022/07/20 01:14:01;;;;;;;;;;;25.00;81.40;;;;;;5035606;28;19909;-77
2022/07/20 01:16:27;;;;;;;;;;;24.70;85.80;;;;;;5035107;28;19917;-92
2022/07/20 01:18:52;;;;;;;;;;;24.50;83.40;;;;;;5050143;28;19924;-82
2022/07/20 01:21:18;;;;;;;;;;;24.60;82.50;;;;;;5033691;28;20220;-76
2022/07/20 01:23:43;;;;;;;;;;;24.70;83.40;;;;;;5033800;28;20011;-77
2022/07/20 01:26:09;;;;;;;;;;;24.80;82.70;;;;;;5035880;28;19979;-77
2022/07/20 01:28:34;;;;;;;;;;;24.80;82.30;;;;;;5032983;28;19933;-78
2022/07/20 01:31:00;;;;;;;;;;;24.80;82.20;;;;;;5035174;28;20032;-81
2022/07/20 01:33:25;;;;;;;;;;;24.70;80.30;;;;;;5043765;28;19956;-76
2022/07/20 01:35:51;;;;;;;;;;;24.70;80.50;;;;;;5054478;28;20025;-76
2022/07/20 01:38:17;;;;;;;;;;;24.70;80.40;;;;;;5045578;28;19916;-75
2022/07/20 01:40:42;;;;;;;;;;;24.70;80.80;;;;;;5034751;28;20296;-74
2022/07/20 01:43:08;;;;;;;;;;;24.60;81.10;;;;;;5039493;28;19912;-78
2022/07/20 01:45:33;;;;;;;;;;;24.40;80.40;;;;;;5042931;28;20331;-77
2022/07/20 01:47:59;;;;;;;;;;;24.40;80.20;;;;;;5038574;28;20011;-78
2022/07/20 01:50:25;;;;;;;;;;;24.50;80.50;;;;;;5037909;28;19970;-79
2022/07/20 01:52:50;;;;;;;;;;;24.50;81.00;;;;;;5032561;28;19917;-77
2022/07/20 01:55:16;;;;;;;;;;;24.40;80.80;;;;;;5035356;28;19916;-76
2022/07/20 01:57:41;;;;;;;;;;;24.40;80.00;;;;;;5034667;28;19937;-76
2022/07/20 02:00:08;;;;;;;;;;;24.40;79.90;;;;;;5042616;28;19913;-76
2022/07/20 02:02:34;;;;;;;;;;;24.40;81.60;;;;;;5038405;28;19956;-76
2022/07/20 02:04:59;;;;;;;;;;;24.40;80.70;;;;;;5037414;28;19963;-94
2022/07/20 02:07:25;;;;;;;;;;;24.30;82.40;;;;;;5044841;28;19920;-78
2022/07/20 02:09:51;;;;;;;;;;;24.30;82.10;;;;;;5032475;28;19913;-77
2022/07/20 02:12:16;;;;;;;;;;;24.20;82.00;;;;;;5038630;28;19921;-77
2022/07/20 02:14:42;;;;;;;;;;;24.00;81.90;;;;;;5032397;28;19940;-76
2022/07/20 02:17:07;;;;;;;;;;;24.00;82.60;;;;;;5041628;28;20209;-78
2022/07/20 02:19:33;;;;;;;;;;;23.90;82.20;;;;;;5041329;28;19975;-78
2022/07/20 02:21:58;;;;;;;;;;;24.00;83.00;;;;;;5047369;28;19915;-76
2022/07/20 02:24:24;;;;;;;;;;;23.90;83.70;;;;;;5031749;28;20372;-78
2022/07/20 02:26:49;;;;;;;;;;;24.00;84.00;;;;;;5045618;28;19919;-76
2022/07/20 02:29:15;;;;;;;;;;;23.90;84.40;;;;;;5031494;28;19921;-76
2022/07/20 02:31:40;;;;;;;;;;;23.80;84.50;;;;;;5043672;28;19913;-76
2022/07/20 02:34:06;;;;;;;;;;;23.80;85.00;;;;;;5039519;28;20414;-76
2022/07/20 02:36:31;;;;;;;;;;;23.70;85.10;;;;;;5040952;28;19920;-77
2022/07/20 02:38:57;;;;;;;;;;;23.60;86.00;;;;;;5038158;28;19913;-77
2022/07/20 02:41:23;;;;;;;;;;;23.70;85.70;;;;;;5053523;28;19909;-77
2022/07/20 02:43:48;;;;;;;;;;;23.70;85.90;;;;;;5050891;28;19913;-75
2022/07/20 02:46:14;;;;;;;;;;;23.60;86.20;;;;;;5046845;28;20025;-76
2022/07/20 02:48:39;;;;;;;;;;;23.50;86.80;;;;;;5043492;28;19916;-78
2022/07/20 02:51:05;;;;;;;;;;;23.40;87.60;;;;;;5041142;28;19917;-78
2022/07/20 02:53:31;;;;;;;;;;;23.30;88.50;;;;;;5041980;28;19913;-78
2022/07/20 02:55:56;;;;;;;;;;;23.20;89.20;;;;;;5036661;28;19913;-77
2022/07/20 02:58:22;;;;;;;;;;;23.10;89.30;;;;;;5037631;28;19999;-79
2022/07/20 03:00:48;;;;;;;;;;;23.00;89.50;;;;;;5036142;28;19921;-79
2022/07/20 03:03:13;;;;;;;;;;;23.00;89.40;;;;;;5036617;28;19998;-75
2022/07/20 03:05:39;;;;;;;;;;;22.90;90.40;;;;;;5036261;28;19917;-77
2022/07/20 03:08:06;;;;;;;;;;;23.00;90.50;;;;;;5034783;28;20274;-80
2022/07/20 03:10:31;;;;;;;;;;;22.90;90.20;;;;;;5036671;28;19932;-77
2022/07/20 03:12:57;;;;;;;;;;;22.90;90.20;;;;;;5034812;28;19952;-84
2022/07/20 03:15:23;;;;;;;;;;;22.90;90.50;;;;;;5038596;28;19928;-79
2022/07/20 03:17:50;;;;;;;;;;;22.90;90.80;;;;;;5044741;28;20000;-79
2022/07/20 03:20:26;;;;;;;;;;;22.80;91.00;;;;;;5036296;28;19913;-79
2022/07/20 03:22:52;;;;;;;;;;;22.80;91.50;;;;;;5040725;28;20438;-80
2022/07/20 03:25:18;;;;;;;;;;;22.70;92.00;;;;;;5036794;28;19917;-80
2022/07/20 03:27:43;;;;;;;;;;;22.60;92.40;;;;;;5050981;28;19909;-78
2022/07/20 03:30:09;;;;;;;;;;;22.60;92.80;;;;;;5040653;28;19913;-78
2022/07/20 03:32:35;;;;;;;;;;;22.50;92.80;;;;;;5039781;28;19917;-78
2022/07/20 03:35:01;;;;;;;;;;;22.40;93.20;;;;;;5046550;28;19958;-77
2022/07/20 03:37:27;;;;;;;;;;;22.40;93.70;;;;;;5041855;28;19921;-79
2022/07/20 03:39:52;;;;;;;;;;;22.30;93.90;;;;;;5050713;28;19917;-76
2022/07/20 03:42:18;;;;;;;;;;;22.30;94.40;;;;;;5044509;28;19909;-77
2022/07/20 03:44:43;;;;;;;;;;;22.30;94.60;;;;;;5035885;28;19914;-78
2022/07/20 03:47:09;;;;;;;;;;;22.20;94.80;;;;;;5044435;28;19921;-82
2022/07/20 03:49:35;;;;;;;;;;;22.20;95.20;;;;;;5045249;28;19964;-76
2022/07/20 03:52:00;;;;;;;;;;;22.10;95.20;;;;;;5046031;28;20296;-77
2022/07/20 03:54:26;;;;;;;;;;;22.10;95.60;;;;;;5042386;28;20324;-77
2022/07/20 03:56:52;;;;;;;;;;;22.00;96.20;;;;;;5050205;28;20244;-85
2022/07/20 03:59:17;;;;;;;;;;;21.90;96.20;;;;;;5035317;28;20399;-76
2022/07/20 04:01:43;;;;;;;;;;;21.90;96.60;;;;;;5040952;28;19917;-76
2022/07/20 04:04:09;;;;;;;;;;;21.90;96.90;;;;;;5037797;28;19913;-77
2022/07/20 04:06:34;;;;;;;;;;;21.80;97.30;;;;;;5050190;28;19917;-75
2022/07/20 04:09:00;;;;;;;;;;;21.90;97.80;;;;;;5034944;28;20208;-76
2022/07/20 04:11:26;;;;;;;;;;;21.90;98.20;;;;;;5034838;28;19948;-75
2022/07/20 04:13:52;;;;;;;;;;;21.80;98.20;;;;;;5034193;28;19921;-83
2022/07/20 04:16:17;;;;;;;;;;;21.80;98.60;;;;;;5045168;28;20290;-79
2022/07/20 04:18:43;;;;;;;;;;;21.70;99.00;;;;;;5033709;28;19927;-77
2022/07/20 04:21:08;;;;;;;;;;;21.60;99.50;;;;;;5034031;28;20287;-78
2022/07/20 04:23:34;;;;;;;;;;;21.60;99.80;;;;;;5043035;28;20004;-78
2022/07/20 04:25:59;;;;;;;;;;;21.60;99.90;;;;;;5040922;28;20303;-78
2022/07/20 04:28:25;;;;;;;;;;;21.60;99.90;;;;;;5056991;28;20007;-78
2022/07/20 04:30:51;;;;;;;;;;;21.60;99.90;;;;;;5037113;28;19909;-77
2022/07/20 04:33:18;;;;;;;;;;;21.60;99.90;;;;;;5034112;28;19920;-76
2022/07/20 04:35:44;;;;;;;;;;;21.60;99.90;;;;;;5035187;28;19956;-78
2022/07/20 04:38:09;;;;;;;;;;;21.60;99.90;;;;;;5048702;28;19952;-78
2022/07/20 04:40:35;;;;;;;;;;;21.70;99.90;;;;;;5034761;28;19980;-78
2022/07/20 04:43:00;;;;;;;;;;;21.70;99.90;;;;;;5023162;28;19917;-78
2022/07/20 04:45:26;;;;;;;;;;;21.70;99.90;;;;;;5027840;28;19952;-79
2022/07/20 04:47:51;;;;;;;;;;;21.80;99.90;;;;;;5033897;28;20280;-78
2022/07/20 04:50:17;;;;;;;;;;;21.80;99.90;;;;;;5033735;28;20236;-78
2022/07/20 04:52:42;;;;;;;;;;;21.90;99.90;;;;;;5033947;28;19921;-78
2022/07/20 04:55:08;;;;;;;;;;;21.90;99.90;;;;;;5035309;28;19913;-79
2022/07/20 04:57:35;;;;;;;;;;;21.90;99.90;;;;;;5035142;28;19913;-78
2022/07/20 05:00:01;;;;;;;;;;;21.90;99.90;;;;;;5034432;28;19961;-79
2022/07/20 05:02:26;;;;;;;;;;;21.90;99.90;;;;;;5033819;28;19913;-77
2022/07/20 05:04:52;;;;;;;;;;;21.90;99.90;;;;;;5032693;28;19925;-79
2022/07/20 05:07:17;;;;;;;;;;;22.00;99.90;;;;;;5034719;28;19925;-78
2022/07/20 05:09:43;;;;;;;;;;;22.10;99.90;;;;;;5034000;28;19917;-78
2022/07/20 05:12:08;;;;;;;;;;;22.20;99.90;;;;;;5035401;28;19975;-79
2022/07/20 05:14:34;;;;;;;;;;;22.20;99.90;;;;;;5035281;28;19921;-78
2022/07/20 05:17:00;;;;;;;;;;;22.20;99.90;;;;;;5033640;28;20205;-79
2022/07/20 05:19:25;;;;;;;;;;;22.30;99.90;;;;;;5035621;28;20019;-78
2022/07/20 05:21:51;;;;;;;;;;;22.40;99.90;;;;;;5046299;28;19944;-77
2022/07/20 05:24:16;;;;;;;;;;;22.40;99.90;;;;;;5045380;28;19912;-77
2022/07/20 05:26:42;;;;;;;;;;;22.50;99.90;;;;;;5046071;28;20216;-76
2022/07/20 05:29:07;;;;;;;;;;;22.50;99.90;;;;;;5047060;28;19962;-78
2022/07/20 05:31:33;;;;;;;;;;;22.50;99.90;;;;;;5048104;28;20004;-77
2022/07/20 05:33:59;;;;;;;;;;;22.50;99.90;;;;;;5039525;28;20246;-80
2022/07/20 05:36:24;;;;;;;;;;;22.50;99.90;;;;;;5040798;28;19970;-77
2022/07/20 05:38:50;;;;;;;;;;;22.60;99.90;;;;;;5042627;28;19917;-77
2022/07/20 05:41:16;;;;;;;;;;;22.70;99.90;;;;;;5039568;28;19912;-77
2022/07/20 05:43:41;;;;;;;;;;;22.70;99.90;;;;;;5044842;28;20019;-77
2022/07/20 05:46:07;;;;;;;;;;;22.70;99.90;;;;;;5050225;28;20201;-77
2022/07/20 05:48:33;;;;;;;;;;;22.70;99.90;;;;;;5044714;28;20334;-78
2022/07/20 05:50:58;;;;;;;;;;;22.90;99.90;;;;;;5047257;28;19923;-83
2022/07/20 05:53:24;;;;;;;;;;;22.90;99.90;;;;;;5045394;28;19925;-78
2022/07/20 05:55:49;;;;;;;;;;;22.90;99.90;;;;;;5049222;28;19927;-80
2022/07/20 05:58:15;;;;;;;;;;;23.00;99.90;;;;;;5041151;28;19956;-78
2022/07/20 06:00:41;;;;;;;;;;;23.00;99.90;;;;;;5041911;28;19913;-80
2022/07/20 06:03:06;;;;;;;;;;;23.00;99.90;;;;;;5036712;28;19919;-79
2022/07/20 06:05:32;;;;;;;;;;;23.10;99.90;;;;;;5047845;28;20390;-78
2022/07/20 06:08:00;;;;;;;;;;;23.10;99.90;;;;;;5045406;28;19996;-78
2022/07/20 06:10:26;;;;;;;;;;;23.20;99.90;;;;;;5045978;28;20391;-81
2022/07/20 06:12:52;;;;;;;;;;;23.20;99.90;;;;;;5032351;28;19924;-78
2022/07/20 06:15:19;;;;;;;;;;;23.30;99.90;;;;;;5041347;28;19921;-82
2022/07/20 06:17:45;;;;;;;;;;;23.30;99.90;;;;;;5046992;28;19966;-76
2022/07/20 06:20:12;;;;;;;;;;;23.30;99.90;;;;;;5040114;28;19917;-78
2022/07/20 06:22:38;;;;;;;;;;;23.40;99.90;;;;;;5044717;28;19920;-84
2022/07/20 06:25:04;;;;;;;;;;;23.50;99.90;;;;;;5046402;28;20232;-78
2022/07/20 06:27:30;;;;;;;;;;;23.60;99.90;;;;;;5049832;28;20194;-78
2022/07/20 06:29:57;;;;;;;;;;;23.80;99.90;;;;;;5052047;28;19916;-77
2022/07/20 06:32:22;;;;;;;;;;;23.90;99.90;;;;;;5042353;28;19920;-80
2022/07/20 06:34:48;;;;;;;;;;;24.00;99.90;;;;;;5041558;28;19913;-81
2022/07/20 06:37:13;;;;;;;;;;;24.00;99.90;;;;;;5051827;28;19956;-80
2022/07/20 06:39:39;;;;;;;;;;;24.20;99.90;;;;;;5037580;28;19924;-80
2022/07/20 06:42:05;;;;;;;;;;;24.20;99.90;;;;;;5038345;28;20279;-80
2022/07/20 06:44:30;;;;;;;;;;;24.20;99.90;;;;;;5037174;28;19924;-79
2022/07/20 06:46:56;;;;;;;;;;;24.20;99.90;;;;;;5036089;28;19913;-83
2022/07/20 06:49:21;;;;;;;;;;;24.20;99.90;;;;;;5036343;28;19925;-79
2022/07/20 06:51:47;;;;;;;;;;;24.20;99.90;;;;;;5038309;28;19967;-80
2022/07/20 06:54:13;;;;;;;;;;;24.10;99.90;;;;;;5039149;28;19924;-79
2022/07/20 06:56:38;;;;;;;;;;;24.10;99.90;;;;;;5036465;28;20321;-79
2022/07/20 06:59:04;;;;;;;;;;;24.10;99.90;;;;;;5038494;28;20387;-79
2022/07/20 07:01:29;;;;;;;;;;;24.10;99.90;;;;;;5037514;28;19920;-82
2022/07/20 07:03:55;;;;;;;;;;;24.10;99.90;;;;;;5038718;28;20004;-81
2022/07/20 07:06:24;;;;;;;;;;;24.10;99.90;;;;;;5036314;28;19957;-80
2022/07/20 07:08:49;;;;;;;;;;;24.00;99.90;;;;;;5035013;28;19949;-80
2022/07/20 07:11:15;;;;;;;;;;;24.10;99.90;;;;;;5035445;28;19967;-78
2022/07/20 07:13:40;;;;;;;;;;;24.10;99.90;;;;;;5035953;28;19939;-76
2022/07/20 07:16:06;;;;;;;;;;;24.10;99.90;;;;;;5033269;28;20370;-79
2022/07/20 07:18:32;;;;;;;;;;;24.00;99.90;;;;;;5033233;28;19917;-81
2022/07/20 07:20:57;;;;;;;;;;;24.00;99.90;;;;;;5033848;28;20331;-79
2022/07/20 07:23:23;;;;;;;;;;;24.10;99.90;;;;;;5034479;28;19921;-78
2022/07/20 07:25:48;;;;;;;;;;;24.20;99.90;;;;;;5034113;28;21637;-76
2022/07/20 07:28:14;;;;;;;;;;;24.20;99.90;;;;;;5036543;28;19916;-75
2022/07/20 07:30:39;;;;;;;;;;;24.40;99.90;;;;;;5033261;28;19917;-81
2022/07/20 07:33:05;;;;;;;;;;;24.50;99.90;;;;;;5034097;28;20112;-80
2022/07/20 07:35:30;;;;;;;;;;;24.60;99.90;;;;;;5034719;28;20317;-75
2022/07/20 07:37:56;;;;;;;;;;;24.80;99.90;;;;;;5034462;28;20352;-77
2022/07/20 07:40:21;;;;;;;;;;;25.00;99.90;;;;;;5035421;28;19993;-77
2022/07/20 07:42:47;;;;;;;;;;;25.10;99.90;;;;;;5034732;28;20003;-78
2022/07/20 07:45:13;;;;;;;;;;;25.30;99.90;;;;;;5035494;28;20327;-78
2022/07/20 07:47:38;;;;;;;;;;;25.30;99.90;;;;;;5035162;28;19913;-80
2022/07/20 07:50:04;;;;;;;;;;;25.50;99.90;;;;;;5037130;28;20014;-77
2022/07/20 07:52:30;;;;;;;;;;;25.60;99.90;;;;;;5032197;28;19923;-80
2022/07/20 07:54:55;;;;;;;;;;;25.60;99.90;;;;;;5034833;28;19918;-78
2022/07/20 07:57:21;;;;;;;;;;;25.80;99.00;;;;;;5032993;28;19913;-81
2022/07/20 07:59:46;;;;;;;;;;;26.00;99.90;;;;;;5032708;28;20011;-77
2022/07/20 08:02:12;;;;;;;;;;;26.20;99.30;;;;;;5034323;28;19917;-78
2022/07/20 08:04:37;;;;;;;;;;;26.50;99.80;;;;;;5034319;28;20308;-77
2022/07/20 08:07:03;;;;;;;;;;;26.70;98.90;;;;;;5039443;28;20288;-79
2022/07/20 08:09:29;;;;;;;;;;;26.80;98.40;;;;;;5043423;28;19913;-77
2022/07/20 08:11:55;;;;;;;;;;;27.00;97.50;;;;;;5032295;28;19964;-78
2022/07/20 08:14:21;;;;;;;;;;;27.10;97.40;;;;;;4931302;28;3017945;-77
2022/07/20 08:16:47;;;;;;;;;;;27.20;96.80;;;;;;5034798;28;20331;-76
2022/07/20 08:19:12;;;;;;;;;;;27.20;96.00;;;;;;5035983;28;19953;-79
2022/07/20 08:21:38;;;;;;;;;;;27.20;96.60;;;;;;5036002;28;19917;-81
2022/07/20 08:24:04;;;;;;;;;;;27.20;95.80;;;;;;5033997;28;19944;-78
2022/07/20 08:26:29;;;;;;;;;;;27.30;96.80;;;;;;5038177;28;20596;-83
2022/07/20 08:28:55;;;;;;;;;;;27.30;96.60;;;;;;5039814;28;19913;-76
2022/07/20 08:31:21;;;;;;;;;;;27.40;95.70;;;;;;5039191;28;19917;-79
2022/07/20 08:33:46;;;;;;;;;;;27.70;96.50;;;;;;5039362;28;19971;-79
2022/07/20 08:36:12;;;;;;;;;;;27.90;97.40;;;;;;5032663;28;20628;-79
2022/07/20 08:38:37;;;;;;;;;;;28.00;96.70;;;;;;5034731;28;20319;-79
2022/07/20 08:41:03;;;;;;;;;;;28.20;96.10;;;;;;5033166;28;19924;-80
2022/07/20 08:43:29;;;;;;;;;;;28.30;96.50;;;;;;5023886;28;20223;-78
2022/07/20 08:45:55;;;;;;;;;;;28.30;95.90;;;;;;5039009;28;19962;-88
2022/07/20 08:48:21;;;;;;;;;;;28.40;96.10;;;;;;5034614;28;19952;-78
2022/07/20 08:50:47;;;;;;;;;;;28.50;94.50;;;;;;5036501;28;19964;-80
2022/07/20 08:53:12;;;;;;;;;;;28.60;95.00;;;;;;5032684;28;20000;-81
2022/07/20 08:55:38;;;;;;;;;;;28.70;94.40;;;;;;5034610;28;20356;-80
2022/07/20 08:58:03;;;;;;;;;;;28.70;94.80;;;;;;5031635;28;19917;-81
2022/07/20 09:00:29;;;;;;;;;;;28.80;94.00;;;;;;5039904;28;19917;-79
2022/07/20 09:02:54;;;;;;;;;;;29.00;94.50;;;;;;5034199;28;19917;-82
2022/07/20 09:05:20;;;;;;;;;;;29.20;93.80;;;;;;5031155;28;20335;-79
2022/07/20 09:07:47;;;;;;;;;;;29.40;93.40;;;;;;5031627;28;20246;-85
2022/07/20 09:10:14;;;;;;;;;;;29.50;91.90;;;;;;5031626;28;19917;-81
2022/07/20 09:12:58;;;;;;;;;;;29.50;91.60;;;;;;5030613;28;19991;-77
2022/07/20 09:15:24;;;;;;;;;;;29.60;91.40;;;;;;5044725;28;19931;-80
2022/07/20 09:18:00;;;;;;;;;;;29.60;93.00;;;;;;5031017;28;20208;-81
2022/07/20 09:20:29;;;;;;;;;;;29.50;92.70;;;;;;5032136;28;20008;-79
2022/07/20 09:22:59;;;;;;;;;;;29.30;91.70;;;;;;5030113;28;19921;-78
2022/07/20 09:25:25;;;;;;;;;;;29.10;90.50;;;;;;5029829;28;19928;-80
2022/07/20 09:27:51;;;;;;;;;;;29.10;90.70;;;;;;5031698;28;19921;-81
2022/07/20 09:30:17;;;;;;;;;;;29.10;90.20;;;;;;5031910;28;19936;-82
2022/07/20 09:33:15;;;;;;;;;;;29.00;89.30;;;;;;5029585;28;20311;-81
2022/07/20 09:35:47;;;;;;;;;;;29.00;90.00;;;;;;4951273;29;20285;-82
2022/07/20 09:38:12;;;;;;;;;;;28.80;90.50;;;;;;4951861;29;19937;-80
2022/07/20 09:40:40;;;;;;;;;;;29.00;90.40;;;;;;4952056;29;20322;-80
2022/07/20 09:43:05;;;;;;;;;;;29.10;89.70;;;;;;4952385;28;19922;-78
2022/07/20 09:45:32;;;;;;;;;;;29.20;89.50;;;;;;4953425;29;19989;-78
2022/07/20 09:48:05;;;;;;;;;;;29.60;91.60;;;;;;4934336;28;19918;-84
2022/07/20 09:50:32;;;;;;;;;;;29.90;91.50;;;;;;4937877;29;19973;-77
2022/07/20 09:52:57;;;;;;;;;;;30.10;90.60;;;;;;4952916;28;19914;-77
2022/07/20 09:55:23;;;;;;;;;;;30.20;90.40;;;;;;4952792;28;19922;-78
2022/07/20 09:57:50;;;;;;;;;;;30.10;87.80;;;;;;4952329;28;19921;-82
2022/07/20 10:00:15;;;;;;;;;;;30.30;90.50;;;;;;4953477;29;19914;-82
2022/07/20 10:02:43;;;;;;;;;;;30.50;90.50;;;;;;4952564;28;19923;-81
2022/07/20 10:05:09;;;;;;;;;;;30.60;87.50;;;;;;4953348;29;19973;-79
2022/07/20 10:07:35;;;;;;;;;;;30.70;88.30;;;;;;4953239;29;19925;-80
2022/07/20 10:10:01;;;;;;;;;;;30.50;90.20;;;;;;4953003;28;19915;-78
2022/07/20 10:12:27;;;;;;;;;;;30.40;90.70;;;;;;5032626;28;19925;-81
2022/07/20 10:14:53;;;;;;;;;;;29.80;90.00;;;;;;5035295;28;19929;-79
2022/07/20 10:17:19;;;;;;;;;;;29.60;90.00;;;;;;5034489;28;19920;-80
2022/07/20 10:19:46;;;;;;;;;;;29.50;90.00;;;;;;5032840;28;19917;-80
2022/07/20 10:22:12;;;;;;;;;;;29.40;90.00;;;;;;5034054;28;19913;-78
2022/07/20 10:24:39;;;;;;;;;;;29.30;89.20;;;;;;5032156;28;19974;-80
2022/07/20 10:27:07;;;;;;;;;;;29.50;90.30;;;;;;5034381;28;20244;-86
2022/07/20 10:29:34;;;;;;;;;;;29.80;91.70;;;;;;5032932;28;19921;-79
2022/07/20 10:32:11;;;;;;;;;;;29.80;91.00;;;;;;5033821;28;19939;-77
2022/07/20 10:34:41;;;;;;;;;;;30.10;91.00;;;;;;5032699;28;19920;-78
2022/07/20 10:37:25;;;;;;;;;;;30.40;90.50;;;;;;5031541;28;20007;-79
2022/07/20 10:39:52;;;;;;;;;;;30.60;90.00;;;;;;5031002;28;19913;-80
2022/07/20 10:42:32;;;;;;;;;;;30.80;90.10;;;;;;5032288;28;20334;-80
2022/07/20 10:45:13;;;;;;;;;;;30.70;89.20;;;;;;5046566;28;19921;-78
2022/07/20 10:47:42;;;;;;;;;;;30.60;90.20;;;;;;5026474;28;20251;-79
2022/07/20 10:50:08;;;;;;;;;;;30.20;89.50;;;;;;5025955;28;19925;-79
2022/07/20 10:52:34;;;;;;;;;;;30.00;87.80;;;;;;5031858;28;20312;-80
2022/07/20 10:55:02;;;;;;;;;;;30.10;89.60;;;;;;5045127;28;19924;-79
2022/07/20 10:57:28;;;;;;;;;;;30.20;90.10;;;;;;5032998;28;19930;-78
2022/07/20 11:00:19;;;;;;;;;;;30.40;90.30;;;;;;5041897;28;19917;-79
2022/07/20 11:02:45;;;;;;;;;;;30.50;90.70;;;;;;5034145;28;20448;-81
2022/07/20 11:05:20;;;;;;;;;;;30.80;91.70;;;;;;5039315;28;19928;-80
2022/07/20 11:07:46;;;;;;;;;;;31.10;88.70;;;;;;5041363;28;19935;-78
2022/07/20 11:10:20;;;;;;;;;;;31.00;90.30;;;;;;5036353;28;20312;-80
2022/07/20 11:12:53;;;;;;;;;;;31.00;90.10;;;;;;5050364;28;19917;-82
2022/07/20 11:15:19;;;;;;;;;;;31.10;90.80;;;;;;5042019;28;19931;-79
2022/07/20 11:17:44;;;;;;;;;;;31.40;91.00;;;;;;5047749;28;20011;-81
2022/07/20 11:20:10;;;;;;;;;;;31.30;90.80;;;;;;5048481;28;20258;-81
2022/07/20 11:22:36;;;;;;;;;;;31.40;91.10;;;;;;5031758;28;20638;-79
2022/07/20 11:25:02;;;;;;;;;;;31.60;91.20;;;;;;5033061;28;19917;-80
2022/07/20 11:27:28;;;;;;;;;;;31.60;91.00;;;;;;5040052;28;20759;-78
2022/07/20 11:29:53;;;;;;;;;;;31.70;90.20;;;;;;5045162;28;19924;-78
2022/07/20 11:32:19;;;;;;;;;;;31.80;87.90;;;;;;5045482;28;20035;-78
2022/07/20 11:34:49;;;;;;;;;;;31.90;87.70;;;;;;5037391;28;19917;-80
2022/07/20 11:37:17;;;;;;;;;;;32.10;90.50;;;;;;5040139;28;19913;-80
2022/07/20 11:39:43;;;;;;;;;;;32.30;88.10;;;;;;5033516;28;19956;-80
2022/07/20 11:42:16;;;;;;;;;;;32.40;90.40;;;;;;5031914;28;19913;-81
2022/07/20 11:44:42;;;;;;;;;;;32.60;89.60;;;;;;5032978;28;19917;-82
2022/07/20 11:47:08;;;;;;;;;;;32.80;89.70;;;;;;5046386;28;20395;-80
2022/07/20 11:49:33;;;;;;;;;;;32.70;89.10;;;;;;5033152;28;20340;-79
2022/07/20 11:52:00;;;;;;;;;;;32.70;89.80;;;;;;5031366;28;19964;-79
2022/07/20 11:54:27;;;;;;;;;;;32.40;90.30;;;;;;5034468;28;19917;-81
2022/07/20 11:56:54;;;;;;;;;;;32.30;87.10;;;;;;5036029;28;19917;-81
2022/07/20 11:59:20;;;;;;;;;;;32.20;85.00;;;;;;5034318;28;19956;-82
2022/07/20 12:01:48;;;;;;;;;;;32.10;89.50;;;;;;5049780;28;20043;-83
2022/07/20 12:04:14;;;;;;;;;;;31.90;87.50;;;;;;5037300;28;20011;-83
2022/07/20 12:06:41;;;;;;;;;;;31.70;89.50;;;;;;5029486;28;19917;-80
2022/07/20 12:09:07;;;;;;;;;;;31.60;89.30;;;;;;5033713;28;19986;-78
2022/07/20 12:11:51;;;;;;;;;;;31.50;89.60;;;;;;5034613;28;20236;-77
2022/07/20 12:14:35;;;;;;;;;;;31.70;91.10;;;;;;5035451;28;20004;-80
2022/07/20 12:17:10;;;;;;;;;;;31.90;89.50;;;;;;5041645;28;19936;-78
2022/07/20 12:19:37;;;;;;;;;;;31.50;89.30;;;;;;5026062;28;19916;-78
2022/07/20 12:22:02;;;;;;;;;;;30.90;90.00;;;;;;5034992;28;20355;-80
2022/07/20 12:24:28;;;;;;;;;;;30.30;90.40;;;;;;5032206;28;20072;-78
2022/07/20 12:27:03;;;;;;;;;;;29.70;90.90;;;;;;5045563;28;19926;-79
2022/07/20 12:29:28;;;;;;;;;;;29.20;91.10;;;;;;5034806;28;19967;-78
2022/07/20 12:32:01;;;;;;;;;;;28.60;91.40;;;;;;5033951;28;19917;-83
2022/07/20 12:34:27;;;;;;;;;;;28.20;92.10;;;;;;5049153;28;20220;-78
2022/07/20 12:36:53;;;;;;;;;;;27.80;93.90;;;;;;5032915;28;19923;-77
2022/07/20 12:39:37;;;;;;;;;;;27.40;95.30;;;;;;5034388;28;19909;-78
2022/07/20 12:42:18;;;;;;;;;;;27.10;96.40;;;;;;5034527;28;19971;-79
2022/07/20 12:44:46;;;;;;;;;;;26.70;97.20;;;;;;5050844;28;20489;-78
2022/07/20 12:47:12;;;;;;;;;;;26.50;97.70;;;;;;5035793;28;19917;-76
2022/07/20 12:49:38;;;;;;;;;;;26.30;98.90;;;;;;5035967;28;19916;-81
2022/07/20 12:52:04;;;;;;;;;;;26.00;98.70;;;;;;5036218;28;20212;-78
2022/07/20 12:54:29;;;;;;;;;;;25.90;99.20;;;;;;5031581;28;19944;-76
2022/07/20 12:56:55;;;;;;;;;;;25.60;99.20;;;;;;5030170;28;19960;-77
2022/07/20 12:59:20;;;;;;;;;;;25.50;99.90;;;;;;5030954;28;20074;-77
2022/07/20 13:01:49;;;;;;;;;;;25.40;99.80;;;;;;5032678;28;19917;-78
2022/07/20 13:04:15;;;;;;;;;;;25.40;99.90;;;;;;5031357;28;20069;-79
2022/07/20 13:06:43;;;;;;;;;;;25.30;99.90;;;;;;5031430;28;19917;-80
2022/07/20 13:09:09;;;;;;;;;;;25.30;99.90;;;;;;5031437;28;19917;-80
2022/07/20 13:11:37;;;;;;;;;;;25.10;99.90;;;;;;5030324;28;20430;-80
2022/07/20 13:14:02;;;;;;;;;;;24.90;99.90;;;;;;5031168;28;20297;-80
2022/07/20 13:16:28;;;;;;;;;;;24.70;99.90;;;;;;5025044;28;19928;-78
2022/07/20 13:18:54;;;;;;;;;;;24.60;99.90;;;;;;5031248;28;19913;-76
2022/07/20 13:21:20;;;;;;;;;;;24.40;99.90;;;;;;5042794;28;20008;-77
2022/07/20 13:23:45;;;;;;;;;;;24.10;99.90;;;;;;5033879;28;20048;-76
2022/07/20 13:26:11;;;;;;;;;;;23.90;99.90;;;;;;5032211;28;19963;-76
2022/07/20 13:28:36;;;;;;;;;;;23.80;99.90;;;;;;5034027;28;20308;-78
2022/07/20 13:31:02;;;;;;;;;;;23.80;99.90;;;;;;5033939;28;19961;-78
2022/07/20 13:33:27;;;;;;;;;;;24.00;99.90;;;;;;5034386;28;19966;-79
2022/07/20 13:35:53;;;;;;;;;;;24.40;99.90;;;;;;5035150;28;19936;-77
2022/07/20 13:38:18;;;;;;;;;;;25.00;99.90;;;;;;5031937;28;19917;-81
2022/07/20 13:40:44;;;;;;;;;;;25.70;99.90;;;;;;5034529;28;20012;-79
2022/07/20 13:43:10;;;;;;;;;;;26.10;99.90;;;;;;5024650;28;19924;-77
2022/07/20 13:45:35;;;;;;;;;;;26.70;99.90;;;;;;5027172;28;19921;-77
2022/07/20 13:48:02;;;;;;;;;;;26.90;99.90;;;;;;5033645;28;20260;-78
2022/07/20 13:50:28;;;;;;;;;;;27.00;99.40;;;;;;5034065;28;19913;-79
2022/07/20 13:52:54;;;;;;;;;;;27.00;99.90;;;;;;5033703;28;20338;-79
2022/07/20 13:55:19;;;;;;;;;;;26.90;99.90;;;;;;5033917;28;19917;-81
2022/07/20 13:57:45;;;;;;;;;;;27.00;99.90;;;;;;5031755;28;20003;-80
2022/07/20 14:00:11;;;;;;;;;;;27.30;99.90;;;;;;5030991;28;19917;-81
2022/07/20 14:02:37;;;;;;;;;;;27.60;99.90;;;;;;5029349;28;20312;-81
2022/07/20 14:05:03;;;;;;;;;;;27.80;99.90;;;;;;5029759;28;19925;-79
2022/07/20 14:07:29;;;;;;;;;;;28.00;99.90;;;;;;5030434;28;19916;-80
2022/07/20 14:09:55;;;;;;;;;;;28.10;99.70;;;;;;5030547;28;19913;-80
2022/07/20 14:12:20;;;;;;;;;;;28.30;99.90;;;;;;5028586;28;19924;-81
2022/07/20 14:14:46;;;;;;;;;;;28.60;99.90;;;;;;5029247;28;20551;-81